Date,TemperatureHighF,TemperatureAvgF,TemperatureLowF,DewpointHighF,DewpointAvgF,DewpointLowF,HumidityHigh,HumidityAvg,HumidityLow,PressureMaxIn,PressureMinIn,WindSpeedMaxMPH,WindSpeedAvgMPH,GustSpeedMaxMPH,PrecipitationSumIn
2013-10-1,88.6,73.6,57.5,70.0,62.2,55.0,92,70,42,29.93,29.85,14,1,18,0.00
2013-10-2,89.1,78.2,66.6,73.0,69.2,62.0,91,75,51,29.97,29.83,12,2,21,0.00
2013-10-3,91.9,82.1,74.8,73.0,70.3,67.0,88,69,46,29.90,29.76,0,0,0,0.00
2013-10-4,89.7,79.9,71.7,71.0,69.2,67.0,89,71,51,29.89,29.78,0,0,0,0.00
2013-10-5,79.0,62.5,51.0,71.0,53.9,41.0,91,75,48,30.18,29.84,10,0,15,0.35
2013-10-6,76.9,59.7,46.5,51.0,43.5,37.0,93,63,24,30.24,30.11,11,1,19,0.01
2013-10-7,85.4,61.9,43.6,54.0,46.1,41.0,92,64,24,30.22,30.08,5,0,12,0.00
2013-10-8,83.6,64.2,44.9,56.0,48.6,43.0,92,63,30,30.14,29.98,10,1,15,0.00
2013-10-9,83.8,66.1,48.0,57.0,51.3,45.0,91,63,33,30.09,29.95,13,2,18,0.00
2013-10-10,84.3,70.1,55.1,66.0,59.5,52.0,91,71,49,30.06,29.86,10,2,19,0.00
2013-10-11,88.3,77.2,69.5,70.0,67.4,62.0,86,73,52,29.91,29.79,10,2,15,0.00
2013-10-12,92.9,80.0,71.8,75.0,67.0,54.0,91,69,32,30.06,29.87,8,1,12,0.00
2013-10-13,78.5,72.5,68.4,68.0,67.1,66.0,92,83,71,30.21,30.07,11,0,12,0.00
2013-10-14,80.1,72.5,68.1,73.0,69.1,66.0,93,89,74,30.14,29.90,13,2,17,0.86
2013-10-15,74.4,63.5,51.8,71.0,60.9,50.0,93,91,89,30.16,29.89,11,1,17,0.80
2013-10-16,64.6,57.5,52.1,53.0,49.2,45.0,93,75,55,30.20,30.10,8,0,9,0.05
2013-10-17,71.8,56.0,42.2,51.0,46.4,40.0,93,73,42,30.20,30.02,4,0,9,0.00
2013-10-18,66.9,57.4,48.2,61.0,53.1,45.0,92,85,76,30.23,29.95,17,1,27,0.06
2013-10-19,67.4,51.7,40.9,45.0,41.1,38.0,89,71,35,30.32,30.14,13,1,22,0.00
2013-10-20,73.7,55.5,38.3,55.0,46.5,36.0,93,75,47,30.15,29.89,12,2,19,0.00
2013-10-21,66.7,57.5,49.7,58.0,52.3,46.0,92,83,72,30.19,29.92,5,0,10,0.00
2013-10-22,77.8,56.7,39.6,53.0,45.3,38.0,93,71,31,30.24,30.09,6,0,16,0.01
2013-10-23,83.6,61.4,44.3,55.0,47.5,42.0,92,67,27,30.19,30.07,9,1,14,0.00
2013-10-24,81.3,63.6,46.6,54.0,48.5,43.0,91,63,29,30.31,30.12,3,0,7,0.00
2013-10-25,71.4,58.5,43.4,57.0,50.3,40.0,91,75,59,30.42,30.26,9,1,12,0.00
2013-10-26,79.3,65.4,55.0,65.0,59.4,52.0,92,81,61,30.27,30.03,13,2,18,0.25
2013-10-27,68.9,60.9,53.3,61.0,57.3,51.0,93,88,73,30.18,30.04,3,0,8,0.01
2013-10-28,74.6,65.7,50.6,68.0,61.7,49.0,94,87,77,30.12,29.99,14,1,17,0.00
2013-10-29,79.8,73.7,69.5,72.0,68.6,65.0,88,84,75,30.05,29.95,0,0,0,0.00
2013-10-30,74.8,72.2,66.2,72.0,68.8,63.0,92,89,82,30.00,29.77,0,0,0,0.08
2013-10-31,72.4,65.6,47.3,67.0,51.5,39.0,91,65,35,29.91,29.72,0,0,0,0.00